header
chart

Reported and forecast weather at local airports

Important: not to be used for flight planning purposes.


EGBB METAR fetched   Sunday 12th Jul @ 05:05:23
EGBB 120350Z 17001KT CAVOK 07/05 Q1028

EGCC METAR fetched   Sunday 12th Jul @ 05:05:14
EGCC 120350Z AUTO 15001KT 9999 NCD 07/06 Q1028

EGGP METAR fetched   Sunday 12th Jul @ 05:05:16
EGGP 120350Z AUTO 18003KT 9999 NCD 09/07 Q1028

EGNH METAR fetched   Sunday 12th Jul @ 05:05:18
EGNH 111950Z 30008KT 9999 SCT046 14/09 Q1028

EGNM METAR fetched   Sunday 12th Jul @ 05:05:21
EGNM 112250Z 27009KT CAVOK 10/08 Q1028

EGOV METAR fetched   Sunday 12th Jul @ 05:05:25
EGOV 120250Z AUTO 18007KT 9999 OVC050/// 13/09 Q1027


EGBB TAF fetched   Sunday 12th Jul @ 05:05:24
TAF AMD EGBB 111847Z 1118/1218 01011KT 9999 FEW045 BECMG 1118/1121 VRB02KT PROB30 1200/1208 8000

EGCC TAF fetched   Sunday 12th Jul @ 05:05:15
TAF AMD EGCC 112200Z 1122/1224 27003KT 9999 SCT040 BECMG 1200/1203 8000 PROB40 1203/1206 4000 BR BECMG 1206/1209 9999

EGGP TAF fetched   Sunday 12th Jul @ 05:05:17
TAF AMD EGGP 112230Z 1122/1218 VRB02KT 9999 SCT040 PROB30 1202/1206 7000

EGNM TAF fetched   Sunday 12th Jul @ 05:05:22
TAF EGNM 111655Z 1118/1124 27014KT 9999 SCT045 BECMG 1121/1124 27004KT

EGOV TAF fetched   Sunday 12th Jul @ 05:05:26
TAF TAF EGOV 190525Z 1906/1918 04008KT CAVOK PROB30 TEMPO 1906/1912 6000 SHRA TEMPO 1912/1915 4000 +SHRA SCT020 BKN030CB PROB30 TEMPO 1913/1915 VRBG20G30KT 2500 TSGR BKN012

Every effort is made to ensure that this information is free from errors but as it is provided by a third party the accuracy of the reports cannot be guaranteed.